Time;durP1;ratioP1;P1;durP2;ratioP2;P2;SDS_P1;SDS_P2;PMS_P1;PMS_P2;Temp;Humidity;BMP_temperature;BMP_pressure;BME280_temperature;BME280_humidity;BME280_pressure;Samples;Min_cycle;Max_cycle;Signal;HPM_P1;HPM_P2
2021/09/28 00:00:08;;;;;;;;;11.00;8.25;;;;;16.45;65.88;102049.88;4917354;28;45541;-58
2021/09/28 00:02:34;;;;;;;;;11.50;9.25;;;;;16.46;65.86;102049.78;4919450;28;45524;-59
2021/09/28 00:05:00;;;;;;;;;12.25;10.00;;;;;16.45;65.54;102055.22;4914599;28;45443;-59
2021/09/28 00:07:25;;;;;;;;;14.75;14.25;;;;;16.40;66.15;102057.28;4917437;28;45411;-58
2021/09/28 00:09:51;;;;;;;;;12.50;11.00;;;;;16.37;65.97;102061.00;4916559;28;45522;-58
2021/09/28 00:12:18;;;;;;;;;12.75;11.00;;;;;16.32;66.08;102064.88;4918000;28;46259;-58
2021/09/28 00:14:43;;;;;;;;;17.75;13.75;;;;;16.29;66.26;102060.63;4914114;28;45787;-59
2021/09/28 00:17:09;;;;;;;;;15.00;14.25;;;;;16.27;66.39;102064.31;4915062;28;45520;-59
2021/09/28 00:19:35;;;;;;;;;15.50;14.00;;;;;16.27;66.29;102075.81;4914458;28;45502;-59
2021/09/28 00:22:00;;;;;;;;;19.50;15.00;;;;;16.29;66.34;102075.72;4913759;28;46360;-59
2021/09/28 00:24:26;;;;;;;;;20.50;18.75;;;;;16.31;66.45;102072.03;4914107;28;45404;-59
2021/09/28 00:26:51;;;;;;;;;19.75;18.00;;;;;16.26;66.31;102079.41;4914535;28;45523;-59
2021/09/28 00:29:17;;;;;;;;;18.00;16.75;;;;;16.22;66.57;102074.41;4915312;28;45606;-59
2021/09/28 00:31:42;;;;;;;;;24.00;20.50;;;;;16.18;66.76;102069.25;4916127;28;46532;-59
2021/09/28 00:34:08;;;;;;;;;23.25;21.75;;;;;16.19;66.72;102080.72;4914717;28;45254;-59
2021/09/28 00:36:33;;;;;;;;;33.75;29.50;;;;;16.19;66.81;102083.41;4917910;28;45406;-59
2021/09/28 00:38:59;;;;;;;;;30.00;30.00;;;;;16.20;66.95;102087.78;4915809;28;45497;-59
2021/09/28 00:41:24;;;;;;;;;40.50;28.75;;;;;16.19;67.25;102086.94;4918334;28;46109;-59
2021/09/28 00:43:53;;;;;;;;;35.50;32.00;;;;;16.16;67.16;102079.13;4913759;28;45364;-59
2021/09/28 00:46:19;;;;;;;;;38.75;32.50;;;;;16.13;67.35;102081.13;4914529;28;45410;-59
2021/09/28 00:48:45;;;;;;;;;45.50;34.50;;;;;16.12;67.30;102082.94;4915096;28;45366;-59
2021/09/28 00:51:11;;;;;;;;;35.75;30.25;;;;;16.15;67.44;102085.41;4918177;28;46096;-59
2021/09/28 00:53:40;;;;;;;;;30.50;25.75;;;;;16.18;67.35;102074.56;4916580;28;45388;-59
2021/09/28 00:56:10;;;;;;;;;30.25;25.50;;;;;16.19;66.73;102075.41;4923642;28;45329;-59
2021/09/28 00:58:38;;;;;;;;;32.00;26.75;;;;;16.21;67.02;102072.69;4923613;28;45462;-59
2021/09/28 01:01:05;;;;;;;;;24.75;23.50;;;;;16.15;66.98;102074.78;4923441;28;45321;-60
2021/09/28 01:03:32;;;;;;;;;30.75;22.75;;;;;16.13;67.13;102076.69;4923102;28;45467;-60
2021/09/28 01:05:58;;;;;;;;;31.75;27.25;;;;;16.05;66.94;102076.28;4912586;28;45403;-60
2021/09/28 01:08:24;;;;;;;;;29.50;27.25;;;;;15.98;67.10;102069.63;4923317;28;45435;-60
2021/09/28 01:10:50;;;;;;;;;28.25;26.25;;;;;15.91;67.26;102066.50;4913622;28;45324;-59
2021/09/28 01:13:16;;;;;;;;;27.50;21.75;;;;;15.90;67.44;102067.44;4912589;28;45351;-60
2021/09/28 01:16:00;;;;;;;;;27.75;20.50;;;;;15.93;67.07;102062.88;4922951;28;45375;-59
2021/09/28 01:18:31;;;;;;;;;26.00;25.00;;;;;15.91;67.16;102065.63;4923273;28;45454;-59
2021/09/28 01:20:58;;;;;;;;;35.25;28.50;;;;;15.86;67.42;102059.72;4923036;28;45354;-59
2021/09/28 01:23:24;;;;;;;;;27.75;25.25;;;;;15.84;67.26;102067.81;4923049;28;45497;-59
2021/09/28 01:25:50;;;;;;;;;28.25;27.00;;;;;15.84;67.50;102064.28;4923401;28;45454;-59
2021/09/28 01:28:16;;;;;;;;;32.75;25.00;;;;;15.83;67.65;102071.41;4923231;28;45313;-59
2021/09/28 01:30:41;;;;;;;;;27.75;23.75;;;;;15.82;67.34;102066.19;4923007;28;45463;-59
2021/09/28 01:33:07;;;;;;;;;29.00;26.00;;;;;15.79;67.44;102067.22;4922977;28;45345;-59
2021/09/28 01:35:35;;;;;;;;;19.00;15.50;;;;;15.79;67.38;102066.34;4923062;28;45309;-59
2021/09/28 01:38:00;;;;;;;;;23.25;17.50;;;;;15.77;67.47;102069.13;4923087;28;45241;-59
2021/09/28 01:40:26;;;;;;;;;15.00;14.50;;;;;15.73;67.39;102064.09;4923106;28;45782;-59
2021/09/28 01:42:51;;;;;;;;;19.50;17.75;;;;;15.75;67.58;102063.03;4922950;28;45339;-59
2021/09/28 01:45:17;;;;;;;;;20.00;14.00;;;;;15.78;67.08;102059.34;4923102;28;45423;-59
2021/09/28 01:47:42;;;;;;;;;21.50;14.25;;;;;15.74;67.36;102063.13;4923047;28;45170;-59
2021/09/28 01:50:08;;;;;;;;;15.50;13.00;;;;;15.67;67.54;102053.81;4922695;28;45326;-61
2021/09/28 01:52:35;;;;;;;;;18.75;15.00;;;;;15.63;67.45;102050.47;4922886;28;45502;-61
2021/09/28 01:55:01;;;;;;;;;13.25;11.00;;;;;15.60;67.24;102059.47;4923491;28;45333;-61
2021/09/28 01:57:27;;;;;;;;;14.50;13.75;;;;;15.58;67.31;102050.75;4926112;28;45432;-61
2021/09/28 01:59:52;;;;;;;;;18.00;13.25;;;;;15.59;67.68;102043.63;4926029;28;46340;-61
2021/09/28 02:02:18;;;;;;;;;17.50;13.00;;;;;15.62;67.53;102044.31;4925768;28;45304;-62
2021/09/28 02:04:43;;;;;;;;;17.00;12.75;;;;;15.61;67.43;102049.72;4926171;28;45286;-61
2021/09/28 02:07:09;;;;;;;;;13.50;13.00;;;;;15.58;67.47;102041.91;4926137;28;45394;-61
2021/09/28 02:09:34;;;;;;;;;7.75;7.00;;;;;15.52;67.35;102036.97;4925971;28;45202;-61
2021/09/28 02:12:00;;;;;;;;;12.75;12.25;;;;;15.49;67.58;102031.84;4925987;28;45259;-61
2021/09/28 02:14:28;;;;;;;;;16.50;13.00;;;;;15.49;67.70;102032.69;4925967;28;45487;-61
2021/09/28 02:16:57;;;;;;;;;14.50;13.50;;;;;15.50;67.78;102031.75;4925975;28;45583;-62
2021/09/28 02:19:23;;;;;;;;;10.00;10.00;;;;;15.47;67.65;102028.41;4925963;28;46258;-61
2021/09/28 02:21:48;;;;;;;;;13.00;10.75;;;;;15.42;68.05;102026.03;4925468;28;45421;-61
2021/09/28 02:24:15;;;;;;;;;17.50;13.75;;;;;15.42;67.90;102031.34;4925948;28;45579;-62
2021/09/28 02:26:42;;;;;;;;;13.50;10.50;;;;;15.44;67.64;102028.59;4926033;28;45249;-62
2021/09/28 02:29:07;;;;;;;;;14.50;12.75;;;;;15.47;67.90;102034.56;4925731;28;45317;-61
2021/09/28 02:31:33;;;;;;;;;10.00;10.00;;;;;15.49;67.75;102027.38;4925821;28;45276;-61
2021/09/28 02:33:59;;;;;;;;;14.00;12.75;;;;;15.49;67.75;102026.53;4926001;28;45598;-61
2021/09/28 02:36:24;;;;;;;;;16.75;10.50;;;;;15.45;67.83;102022.34;4925701;28;45345;-61
2021/09/28 02:38:50;;;;;;;;;9.75;8.25;;;;;15.40;67.63;102021.75;4925659;28;46024;-61
2021/09/28 02:41:15;;;;;;;;;13.50;10.75;;;;;15.34;68.26;102023.84;4925502;28;45379;-61
2021/09/28 02:43:41;;;;;;;;;14.75;11.75;;;;;15.33;68.01;102023.94;4925761;28;45369;-61
2021/09/28 02:46:07;;;;;;;;;13.25;7.75;;;;;15.31;67.95;102013.38;4925582;28;45460;-61
2021/09/28 02:48:32;;;;;;;;;17.75;11.75;;;;;15.27;68.10;102016.31;4925468;28;45373;-61
2021/09/28 02:50:58;;;;;;;;;8.00;7.50;;;;;15.24;68.20;102011.16;4925103;28;45269;-61
2021/09/28 02:53:24;;;;;;;;;12.50;10.00;;;;;15.25;68.07;102015.56;4925654;28;45320;-61
2021/09/28 02:55:49;;;;;;;;;10.50;10.50;;;;;15.28;67.91;102010.91;4925619;28;45448;-62
2021/09/28 02:58:15;;;;;;;;;11.25;8.25;;;;;15.26;67.88;101996.88;4925181;28;45653;-61
2021/09/28 03:00:40;;;;;;;;;10.00;6.50;;;;;15.23;68.34;102004.16;4925076;28;45400;-61
2021/09/28 03:03:06;;;;;;;;;13.50;11.50;;;;;15.20;68.06;101997.22;4925361;28;45223;-61
2021/09/28 03:05:31;;;;;;;;;10.50;7.50;;;;;15.18;68.43;101996.47;4924924;28;45313;-61
2021/09/28 03:07:57;;;;;;;;;10.50;10.00;;;;;15.15;68.44;101991.31;4924334;28;45354;-61
2021/09/28 03:10:22;;;;;;;;;13.50;10.00;;;;;15.12;68.33;101999.47;4925144;28;45193;-61
2021/09/28 03:12:48;;;;;;;;;9.75;8.75;;;;;15.12;68.34;101999.47;4925296;28;45535;-62
2021/09/28 03:15:13;;;;;;;;;8.75;8.25;;;;;15.09;68.55;102004.97;4925071;28;45471;-62
2021/09/28 03:17:39;;;;;;;;;14.50;11.00;;;;;15.05;68.70;102006.09;4924920;28;45277;-62
2021/09/28 03:20:06;;;;;;;;;4.25;4.00;;;;;15.04;68.64;102005.22;4924768;28;45420;-62
2021/09/28 03:22:31;;;;;;;;;8.50;7.75;;;;;15.03;68.64;102008.84;4924819;28;45334;-62
2021/09/28 03:24:57;;;;;;;;;9.75;9.25;;;;;15.04;69.02;102004.38;4924967;28;45517;-62
2021/09/28 03:27:23;;;;;;;;;10.75;7.75;;;;;15.04;68.63;102012.34;4924778;28;45374;-62
2021/09/28 03:29:48;;;;;;;;;10.50;9.25;;;;;15.01;68.87;102016.03;4924941;28;45372;-62
2021/09/28 03:32:14;;;;;;;;;13.50;9.25;;;;;15.01;68.56;102018.69;4924888;28;46489;-62
2021/09/28 03:34:39;;;;;;;;;8.50;7.50;;;;;15.04;68.55;102009.69;4924919;28;45319;-62
2021/09/28 03:37:05;;;;;;;;;9.75;7.50;;;;;15.05;68.56;102006.94;4924586;28;45778;-62
2021/09/28 03:39:32;;;;;;;;;11.50;9.50;;;;;15.06;68.39;102007.78;4924777;28;45270;-62
2021/09/28 03:41:57;;;;;;;;;12.00;8.50;;;;;15.05;68.75;102000.78;4924839;28;45248;-62
2021/09/28 03:44:23;;;;;;;;;9.75;8.00;;;;;15.07;68.58;101993.56;4924387;28;45250;-62
2021/09/28 03:46:49;;;;;;;;;9.75;6.75;;;;;15.09;68.64;101994.38;4907561;28;46192;-62
2021/09/28 03:49:14;;;;;;;;;9.25;8.50;;;;;15.11;68.73;101991.63;4924961;28;45338;-62
2021/09/28 03:51:39;;;;;;;;;12.50;9.25;;;;;15.10;68.92;101987.25;4924603;28;45496;-62
2021/09/28 03:54:05;;;;;;;;;10.00;8.50;;;;;15.09;68.81;101986.41;4924700;28;45315;-62
2021/09/28 03:56:30;;;;;;;;;9.25;7.50;;;;;15.10;68.67;101987.25;4924648;28;46171;-62
2021/09/28 03:58:56;;;;;;;;;9.25;7.00;;;;;15.08;68.91;101982.88;4924472;28;45325;-62
2021/09/28 04:01:21;;;;;;;;;9.00;8.25;;;;;15.07;68.90;101985.63;4924455;28;45385;-62
2021/09/28 04:03:47;;;;;;;;;7.00;7.00;;;;;15.10;68.72;101984.59;4924241;28;45619;-62
2021/09/28 04:06:12;;;;;;;;;8.50;7.50;;;;;15.10;68.82;101976.63;4923970;28;45939;-62
2021/09/28 04:08:38;;;;;;;;;12.00;8.75;;;;;15.10;68.67;101982.78;4924135;28;45297;-62
2021/09/28 04:11:03;;;;;;;;;12.50;9.25;;;;;15.07;68.97;101986.47;4924629;28;45309;-62
2021/09/28 04:13:29;;;;;;;;;13.00;9.25;;;;;15.08;68.80;102001.44;4924415;28;45262;-62
2021/09/28 04:15:55;;;;;;;;;11.75;8.50;;;;;15.09;69.00;101989.06;4924189;28;45205;-62
2021/09/28 04:18:20;;;;;;;;;8.75;7.00;;;;;15.10;69.00;101989.91;4923461;28;45277;-62
2021/09/28 04:20:46;;;;;;;;;7.25;6.75;;;;;15.06;68.80;101990.06;4923571;28;45249;-62
2021/09/28 04:23:14;;;;;;;;;8.75;7.00;;;;;15.06;68.80;101998.03;4924129;28;45394;-62
2021/09/28 04:25:41;;;;;;;;;8.25;6.50;;;;;15.08;69.07;101995.28;4924050;28;45384;-62
2021/09/28 04:28:08;;;;;;;;;12.00;10.00;;;;;15.11;68.92;101995.13;4923748;28;45276;-62
2021/09/28 04:30:34;;;;;;;;;12.75;8.00;;;;;15.15;69.00;101999.28;4923953;28;45317;-62
2021/09/28 04:32:59;;;;;;;;;13.00;8.00;;;;;15.14;68.74;101997.59;4923988;28;45253;-62
2021/09/28 04:35:25;;;;;;;;;9.00;6.50;;;;;15.15;68.84;101993.13;4923633;28;45253;-62
2021/09/28 04:37:50;;;;;;;;;7.50;5.50;;;;;15.17;68.95;102005.38;4923789;28;45244;-62
2021/09/28 04:40:16;;;;;;;;;11.00;7.50;;;;;15.19;68.79;102002.63;4924001;28;45486;-62
2021/09/28 04:42:42;;;;;;;;;7.75;6.00;;;;;15.18;68.32;101999.13;4923851;28;45210;-62
2021/09/28 04:45:10;;;;;;;;;7.25;6.75;;;;;15.18;68.31;101996.47;4923750;28;46035;-62
2021/09/28 04:47:36;;;;;;;;;6.00;5.50;;;;;15.18;68.59;101992.97;4923618;28;45356;-62
2021/09/28 04:50:03;;;;;;;;;6.75;5.00;;;;;15.15;68.31;101990.47;4923390;28;45498;-62
2021/09/28 04:52:29;;;;;;;;;5.25;5.00;;;;;15.13;68.61;101995.88;4923857;28;45398;-62
2021/09/28 04:54:54;;;;;;;;;4.50;4.50;;;;;15.15;68.99;101988.66;4923697;28;45472;-62
2021/09/28 04:57:21;;;;;;;;;6.75;6.00;;;;;15.19;68.64;101994.69;4923627;28;45256;-62
2021/09/28 04:59:47;;;;;;;;;6.00;6.00;;;;;15.18;68.35;101991.16;4923344;28;45249;-62
2021/09/28 05:02:12;;;;;;;;;11.25;10.00;;;;;15.22;68.59;101998.00;4923435;28;45270;-62
2021/09/28 05:04:38;;;;;;;;;7.00;6.25;;;;;15.20;68.72;101994.56;4923454;28;45648;-62
2021/09/28 05:07:04;;;;;;;;;6.25;6.25;;;;;15.18;68.81;101990.31;4923143;28;45172;-60
2021/09/28 05:09:30;;;;;;;;;5.75;5.25;;;;;15.15;68.90;102001.09;4923567;28;45292;-61
2021/09/28 05:11:56;;;;;;;;;5.75;5.00;;;;;15.12;69.08;102002.13;4923398;28;45384;-61
2021/09/28 05:14:22;;;;;;;;;8.25;8.00;;;;;15.13;68.83;101997.69;4923147;28;46003;-60
2021/09/28 05:16:47;;;;;;;;;13.75;8.50;;;;;15.13;69.08;102001.19;4923146;28;45325;-61
2021/09/28 05:19:13;;;;;;;;;15.75;13.75;;;;;15.06;68.97;102000.69;4923551;28;45438;-61
2021/09/28 05:21:38;;;;;;;;;21.25;13.75;;;;;15.01;69.12;102004.56;4923208;28;45384;-61
2021/09/28 05:24:07;;;;;;;;;11.50;9.25;;;;;14.99;68.95;102004.63;4923190;28;45886;-61
2021/09/28 05:26:32;;;;;;;;;21.25;14.50;;;;;14.98;69.19;102004.72;4923076;28;45256;-61
2021/09/28 05:28:57;;;;;;;;;14.75;13.00;;;;;14.98;69.15;102005.56;4923170;28;45318;-61
2021/09/28 05:31:23;;;;;;;;;15.50;13.00;;;;;14.98;68.79;102008.22;4925502;28;45618;-61
2021/09/28 05:33:48;;;;;;;;;12.50;11.00;;;;;14.98;69.01;102008.22;4926457;28;46289;-61
2021/09/28 05:36:14;;;;;;;;;14.00;13.75;;;;;14.95;68.97;101999.59;4926365;28;45460;-61
2021/09/28 05:38:39;;;;;;;;;15.00;12.25;;;;;14.96;69.09;102001.31;4926298;28;45404;-61
2021/09/28 05:41:08;;;;;;;;;20.00;14.00;;;;;14.94;69.23;102000.56;4926489;28;45240;-61
2021/09/28 05:43:34;;;;;;;;;20.00;16.00;;;;;14.92;69.37;101987.34;4926430;28;45353;-61
2021/09/28 05:45:59;;;;;;;;;20.00;15.00;;;;;14.97;69.21;101984.44;4926359;28;45244;-62
2021/09/28 05:48:25;;;;;;;;;21.75;15.00;;;;;14.95;69.26;101981.88;4926674;28;45245;-61
2021/09/28 05:50:50;;;;;;;;;18.75;13.50;;;;;14.92;69.36;101979.38;4926406;28;45307;-64
2021/09/28 05:53:16;;;;;;;;;14.75;12.25;;;;;14.92;69.25;101971.44;4926244;28;45281;-61
2021/09/28 05:55:42;;;;;;;;;16.50;14.75;;;;;14.90;69.52;101972.47;4920340;28;45249;-62
2021/09/28 05:58:08;;;;;;;;;14.50;14.00;;;;;14.87;69.63;101970.00;4917959;28;45438;-61
2021/09/28 06:00:34;;;;;;;;;14.75;14.00;;;;;14.87;69.64;101970.00;4918726;28;45242;-61
2021/09/28 06:02:59;;;;;;;;;21.00;15.75;;;;;14.89;69.80;101973.41;4916816;28;45422;-61
2021/09/28 06:05:25;;;;;;;;;23.50;18.00;;;;;14.91;69.88;101976.84;4921798;28;45316;-62
2021/09/28 06:07:50;;;;;;;;;23.25;16.00;;;;;14.93;69.79;101974.94;4918445;28;45475;-61
2021/09/28 06:10:16;;;;;;;;;31.25;20.00;;;;;14.96;69.82;101978.28;4918167;28;45341;-61
2021/09/28 06:12:41;;;;;;;;;21.75;16.50;;;;;15.00;69.94;101978.94;4916958;28;45612;-61
2021/09/28 06:15:07;;;;;;;;;16.25;15.00;;;;;15.03;69.60;101981.44;4920015;28;45458;-61
2021/09/28 06:17:34;;;;;;;;;16.50;14.25;;;;;15.04;69.96;101975.19;4920270;28;45261;-61
2021/09/28 06:19:59;;;;;;;;;12.25;12.25;;;;;15.02;70.02;101980.59;4916965;28;45499;-61
2021/09/28 06:22:28;;;;;;;;;14.50;13.75;;;;;15.08;69.85;101987.31;4916864;28;45357;-61
2021/09/28 06:24:55;;;;;;;;;15.50;15.25;;;;;15.13;69.70;101987.06;4918332;28;45427;-61
2021/09/28 06:27:21;;;;;;;;;24.25;13.75;;;;;15.19;69.40;101984.91;4916739;28;45310;-61
2021/09/28 06:29:47;;;;;;;;;20.75;14.25;;;;;15.23;69.51;101982.91;4901876;28;45415;-61
2021/09/28 06:32:13;;;;;;;;;16.50;14.25;;;;;15.26;69.38;101977.44;4916577;28;45253;-61
2021/09/28 06:34:38;;;;;;;;;18.00;15.00;;;;;15.32;69.42;101982.38;4916775;28;45322;-61
2021/09/28 06:37:04;;;;;;;;;17.25;14.00;;;;;15.39;69.12;101985.50;4916947;28;45512;-61
2021/09/28 06:39:29;;;;;;;;;25.00;15.50;;;;;15.43;68.98;101989.72;4918628;28;45328;-61
2021/09/28 06:41:55;;;;;;;;;24.25;16.00;;;;;15.47;69.07;101985.91;4915480;28;45697;-61
2021/09/28 06:44:20;;;;;;;;;25.75;13.75;;;;;15.52;69.03;101989.16;4919228;28;45223;-61
2021/09/28 06:46:46;;;;;;;;;14.25;13.25;;;;;15.57;68.78;101989.75;4917344;28;45478;-61
2021/09/28 06:49:12;;;;;;;;;19.00;14.25;;;;;15.61;68.67;101994.78;4920044;28;45249;-61
2021/09/28 06:51:37;;;;;;;;;17.50;17.50;;;;;15.67;68.52;101988.28;4918501;28;46096;-62
2021/09/28 06:54:03;;;;;;;;;11.75;9.25;;;;;15.70;68.57;101992.53;4921231;28;45294;-61
2021/09/28 06:56:28;;;;;;;;;14.50;11.25;;;;;15.73;68.34;101985.25;4917037;28;45286;-61
2021/09/28 06:58:54;;;;;;;;;13.25;13.00;;;;;15.78;68.49;101983.13;4917220;28;45382;-61
2021/09/28 07:01:19;;;;;;;;;16.25;13.75;;;;;15.86;68.17;101982.66;4914507;28;45733;-61
2021/09/28 07:03:45;;;;;;;;;16.50;14.50;;;;;15.92;67.96;101987.63;4918651;28;45265;-61
2021/09/28 07:06:10;;;;;;;;;40.50;23.00;;;;;16.00;68.72;101987.13;4917448;28;45364;-61
2021/09/28 07:08:36;;;;;;;;;17.00;16.00;;;;;16.05;68.36;101977.09;4918528;28;45769;-61
2021/09/28 07:11:01;;;;;;;;;15.50;14.50;;;;;16.11;68.42;101974.88;4916171;28;46042;-61
2021/09/28 07:13:27;;;;;;;;;14.75;13.25;;;;;16.20;67.49;101976.13;4918457;28;45265;-61
2021/09/28 07:15:53;;;;;;;;;16.00;13.50;;;;;16.25;67.54;101975.81;4917665;28;45435;-61
2021/09/28 07:18:18;;;;;;;;;21.00;18.75;;;;;16.30;67.50;101979.06;4920666;28;45296;-61
2021/09/28 07:20:45;;;;;;;;;18.00;15.00;;;;;16.32;67.02;101975.34;4916285;28;46091;-61
2021/09/28 07:23:11;;;;;;;;;14.25;12.25;;;;;16.39;66.92;101973.16;4917685;28;45382;-61
2021/09/28 07:25:36;;;;;;;;;15.75;14.00;;;;;16.47;66.44;101977.00;4915863;28;45431;-61
2021/09/28 07:28:02;;;;;;;;;13.50;9.00;;;;;16.55;65.71;101978.31;4918272;28;45519;-61
2021/09/28 07:30:29;;;;;;;;;14.50;13.25;;;;;16.61;65.72;101967.28;4915496;28;45428;-61
2021/09/28 07:32:55;;;;;;;;;14.25;13.50;;;;;16.68;65.65;101981.91;4917620;28;45472;-61
2021/09/28 07:35:21;;;;;;;;;15.50;10.50;;;;;16.71;65.24;101979.06;4916504;28;45471;-61
2021/09/28 07:37:46;;;;;;;;;15.00;9.25;;;;;16.74;65.04;101971.72;4916715;28;45252;-61
2021/09/28 07:40:13;;;;;;;;;10.75;8.25;;;;;16.79;64.49;101974.09;4915718;28;45385;-61
2021/09/28 07:42:38;;;;;;;;;17.00;14.00;;;;;16.83;64.60;101977.44;4917798;28;45417;-61
2021/09/28 07:45:05;;;;;;;;;9.25;9.25;;;;;16.88;64.75;101973.50;4916075;28;45241;-61
2021/09/28 07:47:31;;;;;;;;;10.25;9.00;;;;;16.92;64.34;101975.00;4918519;28;45211;-61
2021/09/28 07:49:57;;;;;;;;;13.00;9.25;;;;;16.95;63.50;101977.47;4916972;28;46031;-61
2021/09/28 07:52:23;;;;;;;;;12.00;8.25;;;;;17.02;63.70;101967.25;4919659;28;45435;-61
2021/09/28 07:54:48;;;;;;;;;10.25;8.75;;;;;17.10;64.00;101972.06;4918528;28;45240;-61
2021/09/28 07:57:14;;;;;;;;;9.00;8.00;;;;;17.15;63.30;101967.31;4917059;28;45317;-61
2021/09/28 07:59:39;;;;;;;;;7.50;7.00;;;;;17.20;63.44;101974.00;4914952;28;45413;-61
2021/09/28 08:02:06;;;;;;;;;9.00;6.50;;;;;17.23;63.01;101975.63;4917567;28;45562;-61
2021/09/28 08:04:34;;;;;;;;;8.75;8.75;;;;;17.27;62.70;101972.63;4915399;28;45453;-61
2021/09/28 08:07:00;;;;;;;;;11.50;9.50;;;;;17.30;62.69;101977.78;4918149;28;45326;-61
2021/09/28 08:09:26;;;;;;;;;9.00;8.00;;;;;17.35;62.08;101972.09;4915585;28;45441;-61
2021/09/28 08:11:52;;;;;;;;;11.75;9.00;;;;;17.38;62.47;101977.25;4917020;28;45524;-61
2021/09/28 08:14:18;;;;;;;;;9.50;7.50;;;;;17.42;62.01;101973.41;4915289;28;45409;-61
2021/09/28 08:16:44;;;;;;;;;11.00;9.00;;;;;17.45;62.41;101973.19;4920065;28;45476;-61
2021/09/28 08:19:10;;;;;;;;;20.25;17.50;;;;;17.49;63.09;101974.69;4918146;28;46178;-61
2021/09/28 08:21:36;;;;;;;;;16.25;10.50;;;;;17.52;63.22;101977.13;4916157;28;45503;-61
2021/09/28 08:24:02;;;;;;;;;24.50;18.75;;;;;17.55;63.11;101982.28;4915042;28;45310;-61
2021/09/28 08:29:10;;;;;;;;;28.50;24.25;;;;;17.69;63.70;101985.78;4914785;28;46123;-61
2021/09/28 08:31:47;;;;;;;;;22.75;18.25;;;;;17.73;62.59;101990.81;4916529;28;45479;-61
2021/09/28 08:34:14;;;;;;;;;24.00;19.50;;;;;17.79;62.73;101986.91;4899265;28;45483;-62
2021/09/28 08:36:40;;;;;;;;;21.00;17.75;;;;;17.83;62.69;101983.03;4915437;28;45321;-61
2021/09/28 08:39:17;;;;;;;;;21.50;18.75;;;;;17.89;62.33;101985.28;4915079;28;46463;-62
2021/09/28 08:41:47;;;;;;;;;19.25;16.50;;;;;17.90;61.80;101989.66;4915345;28;45240;-61
2021/09/28 08:44:14;;;;;;;;;25.25;14.75;;;;;17.93;61.75;101986.78;4916941;28;45277;-61
2021/09/28 08:46:40;;;;;;;;;17.25;15.75;;;;;17.98;62.19;101986.44;4916369;28;45320;-61
2021/09/28 08:49:05;;;;;;;;;20.50;16.00;;;;;18.02;61.53;101991.47;4918209;28;45317;-61
2021/09/28 08:51:32;;;;;;;;;20.00;17.50;;;;;18.07;61.56;101988.44;4917336;28;45338;-62
2021/09/28 08:53:58;;;;;;;;;19.25;16.25;;;;;18.10;61.73;101978.44;4918542;28;45493;-62
2021/09/28 08:56:24;;;;;;;;;15.75;14.00;;;;;18.16;61.44;101978.94;4914912;28;45372;-61
2021/09/28 08:59:07;;;;;;;;;20.75;12.50;;;;;18.19;60.72;101978.75;4916650;28;45482;-61
2021/09/28 09:01:36;;;;;;;;;16.00;13.00;;;;;18.21;60.92;101980.31;4916117;28;45407;-61
2021/09/28 09:04:15;;;;;;;;;21.50;14.50;;;;;18.23;60.42;101977.53;4919510;28;45442;-61
2021/09/28 09:06:41;;;;;;;;;19.00;13.75;;;;;18.28;60.49;101981.59;4916323;28;45316;-61
2021/09/28 09:09:07;;;;;;;;;17.50;16.50;;;;;18.35;59.72;101984.69;4916644;28;45279;-61
2021/09/28 09:11:38;;;;;;;;;15.00;12.75;;;;;18.42;59.43;101977.94;4915630;28;46309;-61
2021/09/28 09:14:19;;;;;;;;;8.25;8.00;;;;;18.50;58.92;101980.06;4897715;28;45407;-61
2021/09/28 09:16:46;;;;;;;;;10.75;7.00;;;;;18.59;58.67;101980.22;4919543;28;45633;-61
2021/09/28 09:19:16;;;;;;;;;8.00;7.00;;;;;18.66;58.27;101978.84;4914924;28;46473;-61
2021/09/28 09:21:53;;;;;;;;;7.00;7.00;;;;;18.72;58.09;101974.00;4914604;28;45250;-61
2021/09/28 09:24:43;;;;;;;;;8.00;5.75;;;;;18.81;57.70;101970.66;4916591;28;45726;-61
2021/09/28 09:27:19;;;;;;;;;6.00;5.75;;;;;18.87;57.87;101968.38;4915287;28;45454;-61
2021/09/28 09:30:11;;;;;;;;;10.25;7.00;;;;;18.95;57.18;101965.13;4919109;28;45234;-61
2021/09/28 09:32:59;;;;;;;;;6.75;6.00;;;;;19.03;57.50;101956.53;4915960;28;45435;-61
2021/09/28 09:35:33;;;;;;;;;11.00;7.25;;;;;19.12;57.23;101956.72;4914134;28;45308;-61
2021/09/28 09:38:07;;;;;;;;;8.00;6.00;;;;;19.18;56.40;101956.22;4914051;28;45445;-61
2021/09/28 09:40:37;;;;;;;;;7.00;5.00;;;;;19.18;55.76;101961.56;4916957;28;45487;-61
2021/09/28 09:43:04;;;;;;;;;6.00;5.00;;;;;19.22;55.85;101948.84;4919823;28;45230;-61
2021/09/28 09:45:30;;;;;;;;;5.50;4.00;;;;;19.24;55.13;101947.75;4914890;28;45450;-61
2021/09/28 09:47:56;;;;;;;;;6.75;5.50;;;;;19.24;55.28;101946.91;4914604;28;45459;-61
2021/09/28 09:50:26;;;;;;;;;4.75;4.00;;;;;19.31;56.01;101941.94;4897189;28;45807;-61
2021/09/28 09:52:57;;;;;;;;;3.75;3.25;;;;;19.39;55.03;101940.38;4916193;28;45280;-60
2021/09/28 09:55:31;;;;;;;;;3.50;2.75;;;;;19.43;53.94;101938.31;4916532;28;45460;-61
2021/09/28 09:57:59;;;;;;;;;5.25;2.25;;;;;19.41;53.86;101933.09;4913909;28;45378;-62
2021/09/28 10:00:25;;;;;;;;;3.75;2.50;;;;;19.43;53.47;101922.28;4916174;28;45403;-61
2021/09/28 10:02:51;;;;;;;;;22.75;20.25;;;;;19.47;53.81;101923.75;4913492;28;45253;-61
2021/09/28 10:05:17;;;;;;;;;5.25;5.00;;;;;19.49;53.67;101913.78;4916154;28;45345;-61
2021/09/28 10:07:43;;;;;;;;;7.00;3.00;;;;;19.52;53.47;101919.75;4914774;28;45412;-61
2021/09/28 10:10:16;;;;;;;;;3.75;2.00;;;;;19.55;53.05;101923.16;4913983;28;45448;-61
2021/09/28 10:12:42;;;;;;;;;3.00;0.75;;;;;19.58;53.03;101920.25;4913581;28;45407;-61
2021/09/28 10:15:13;;;;;;;;;2.00;1.00;;;;;19.63;53.24;101916.25;4916426;28;45476;-61
2021/09/28 10:17:41;;;;;;;;;3.25;2.25;;;;;19.66;53.37;101920.50;4919588;28;45412;-61
2021/09/28 10:20:30;;;;;;;;;1.00;1.00;;;;;19.67;52.96;101917.75;4916751;28;45284;-61
2021/09/28 10:23:12;;;;;;;;;3.50;2.00;;;;;19.72;53.39;101925.38;4917726;28;45559;-60
2021/09/28 10:25:39;;;;;;;;;4.50;1.00;;;;;19.75;52.87;101917.13;4916371;28;45254;-60
2021/09/28 10:28:05;;;;;;;;;3.25;1.00;;;;;19.76;52.30;101922.34;4919094;28;45566;-61
2021/09/28 10:30:33;;;;;;;;;1.00;1.00;;;;;19.82;52.76;101920.16;4916458;28;46080;-61
2021/09/28 10:32:59;;;;;;;;;3.75;1.00;;;;;19.85;52.55;101925.28;4919647;28;45479;-61
2021/09/28 10:35:25;;;;;;;;;4.00;2.75;;;;;19.89;52.31;101916.00;4917947;28;45270;-61
2021/09/28 10:37:59;;;;;;;;;2.75;2.00;;;;;19.92;52.36;101923.81;4920816;28;45230;-61
2021/09/28 10:40:46;;;;;;;;;5.00;2.00;;;;;19.95;52.34;101920.88;4919381;28;45368;-61
2021/09/28 10:43:27;;;;;;;;;9.00;3.00;;;;;19.97;52.18;101919.78;4916292;28;45431;-62
2021/09/28 10:45:52;;;;;;;;;48.50;38.50;;;;;19.97;51.63;101918.91;4915713;28;45455;-61
2021/09/28 10:48:21;;;;;;;;;5.50;4.00;;;;;19.93;51.59;101915.66;4916588;28;45333;-63
2021/09/28 10:50:46;;;;;;;;;1.50;0.00;;;;;19.86;51.74;101924.28;4918726;28;45963;-61
2021/09/28 10:53:18;;;;;;;;;0.00;0.00;;;;;19.78;51.51;101917.72;4916215;28;45186;-62
2021/09/28 10:56:14;;;;;;;;;1.00;0.00;;;;;19.70;50.77;101920.16;4919994;28;45510;-62
2021/09/28 10:59:00;;;;;;;;;1.25;0.00;;;;;19.64;50.81;101920.63;4897036;28;45267;-62
2021/09/28 11:01:28;;;;;;;;;2.25;0.00;;;;;19.62;51.51;101913.72;4916028;28;45365;-62
2021/09/28 11:03:56;;;;;;;;;0.00;0.00;;;;;19.59;51.04;101908.59;4918149;28;45283;-61
2021/09/28 11:06:40;;;;;;;;;3.00;1.00;;;;;19.59;50.78;101903.25;4915799;28;45566;-62
2021/09/28 11:09:11;;;;;;;;;1.25;0.50;;;;;19.60;51.55;101896.97;4918504;28;45444;-60
2021/09/28 11:11:37;;;;;;;;;0.00;0.00;;;;;19.63;50.26;101894.03;4901014;28;45221;-62
2021/09/28 11:14:06;;;;;;;;;1.50;1.00;;;;;19.70;50.65;101893.44;4916565;28;45301;-62
2021/09/28 11:16:50;;;;;;;;;3.00;1.00;;;;;19.78;50.44;101891.00;4918934;28;45493;-61